Time;durP1;ratioP1;P1;durP2;ratioP2;P2;SDS_P1;SDS_P2;PMS_P1;PMS_P2;Temp;Humidity;BMP_temperature;BMP_pressure;BME280_temperature;BME280_humidity;BME280_pressure;Samples;Min_cycle;Max_cycle;Signal;HPM_P1;HPM_P2
2023/05/25 00:01:18;;;;;;;;;;;;;;;;;;5051386;28;19925;-62
2023/05/25 00:03:44;;;;;;;;;;;;;;;;;;5051489;28;19924;-62
2023/05/25 00:06:10;;;;;;;;;;;;;;;;;;5051238;28;19921;-62
2023/05/25 00:08:36;;;;;;;;;;;;;;;;;;5051272;28;20309;-62
2023/05/25 00:11:02;;;;;;;;;;;;;;;;;;5051156;28;19932;-62
2023/05/25 00:13:28;;;;;;;;;;;;;;;;;;5049885;28;19921;-62
2023/05/25 00:15:54;;;;;;;;;;;;;;;;;;5051052;28;19920;-62
2023/05/25 00:18:20;;;;;;;;;;;;;;;;;;5070086;28;19925;-62
2023/05/25 00:20:46;;;;;;;;;;;;;;;;;;5054688;28;19936;-62
2023/05/25 00:23:12;;;;;;;;;;;;;;;;;;5054823;28;19924;-63
2023/05/25 00:25:38;;;;;;;;;;;;;;;;;;5054557;28;20319;-63
2023/05/25 00:28:05;;;;;;;;;;;;;;;;;;5054650;28;19921;-63
2023/05/25 00:30:30;;;;;;;;;;;;;;;;;;5033450;28;19948;-63
2023/05/25 00:32:56;;;;;;;;;;;;;;;;;;5034664;28;20532;-63
2023/05/25 00:35:22;;;;;;;;;;;;;;;;;;5034769;28;19928;-63
2023/05/25 00:37:50;;;;;;;;;;;;;;;;;;5016696;28;19925;-63
2023/05/25 00:40:16;;;;;;;;;;;;;;;;;;5034557;28;20751;-63
2023/05/25 00:42:42;;;;;;;;;;;;;;;;;;5034521;28;19929;-63
2023/05/25 00:45:08;;;;;;;;;;;;;;;;;;5034653;28;19955;-63
2023/05/25 00:47:34;;;;;;;;;;;;;;;;;;5034424;28;19936;-63
2023/05/25 00:50:00;;;;;;;;;;;;;;;;;;5034343;28;19971;-63
2023/05/25 00:52:26;;;;;;;;;;;;;;;;;;5033825;28;19925;-63
2023/05/25 00:54:52;;;;;;;;;;;;;;;;;;5033647;28;20070;-63
2023/05/25 00:57:18;;;;;;;;;;;;;;;;;;5031942;28;20023;-63
2023/05/25 00:59:44;;;;;;;;;;;;;;;;;;5033282;28;19929;-63
2023/05/25 01:02:10;;;;;;;;;;;;;;;;;;5033453;28;19921;-63
2023/05/25 01:04:35;;;;;;;;;;;;;;;;;;5033591;28;19921;-63
2023/05/25 01:07:01;;;;;;;;;;;;;;;;;;5032523;28;19932;-63
2023/05/25 01:09:27;;;;;;;;;;;;;;;;;;5033656;28;20244;-63
2023/05/25 01:11:53;;;;;;;;;;;;;;;;;;5033478;28;19925;-63
2023/05/25 01:14:20;;;;;;;;;;;;;;;;;;5032875;28;20003;-63
2023/05/25 01:16:46;;;;;;;;;;;;;;;;;;5032839;28;19925;-63
2023/05/25 01:19:12;;;;;;;;;;;;;;;;;;5033938;28;20434;-63
2023/05/25 01:21:40;;;;;;;;;;;;;;;;;;5033758;28;20363;-63
2023/05/25 01:24:07;;;;;;;;;;;;;;;;;;5033776;28;19925;-63
2023/05/25 01:26:33;;;;;;;;;;;;;;;;;;5033680;28;19925;-63
2023/05/25 01:28:59;;;;;;;;;;;;;;;;;;5031988;28;19971;-63
2023/05/25 01:31:25;;;;;;;;;;;;;;;;;;5033700;28;19929;-63
2023/05/25 01:33:51;;;;;;;;;;;;;;;;;;5033774;28;20011;-63
2023/05/25 01:36:16;;;;;;;;;;;;;;;;;;5033766;28;19960;-63
2023/05/25 01:38:42;;;;;;;;;;;;;;;;;;5053048;28;19931;-63
2023/05/25 01:41:08;;;;;;;;;;;;;;;;;;5053344;28;19921;-63
2023/05/25 01:43:34;;;;;;;;;;;;;;;;;;5068564;28;19924;-63
2023/05/25 01:46:00;;;;;;;;;;;;;;;;;;5053508;28;19924;-62
2023/05/25 01:48:26;;;;;;;;;;;;;;;;;;5053180;28;19927;-62
2023/05/25 01:50:52;;;;;;;;;;;;;;;;;;5053299;28;19931;-62
2023/05/25 01:53:18;;;;;;;;;;;;;;;;;;5053110;28;19932;-62
2023/05/25 01:55:44;;;;;;;;;;;;;;;;;;5053219;28;19928;-62
2023/05/25 01:58:10;;;;;;;;;;;;;;;;;;5053083;28;20423;-62
2023/05/25 02:00:36;;;;;;;;;;;;;;;;;;5053097;28;20007;-62
2023/05/25 02:03:02;;;;;;;;;;;;;;;;;;5053012;28;20054;-62
2023/05/25 02:05:28;;;;;;;;;;;;;;;;;;5053209;28;19921;-62
2023/05/25 02:07:54;;;;;;;;;;;;;;;;;;5052672;28;20287;-62
2023/05/25 02:10:20;;;;;;;;;;;;;;;;;;5052797;28;20572;-62
2023/05/25 02:12:46;;;;;;;;;;;;;;;;;;5052839;28;19925;-62
2023/05/25 02:15:12;;;;;;;;;;;;;;;;;;5052868;28;20002;-62
2023/05/25 02:17:38;;;;;;;;;;;;;;;;;;5052849;28;20298;-62
2023/05/25 02:20:05;;;;;;;;;;;;;;;;;;5052450;28;19928;-62
2023/05/25 02:22:31;;;;;;;;;;;;;;;;;;5052855;28;19978;-62
2023/05/25 02:24:57;;;;;;;;;;;;;;;;;;5052678;28;19956;-62
2023/05/25 02:27:23;;;;;;;;;;;;;;;;;;5052558;28;19927;-63
2023/05/25 02:29:49;;;;;;;;;;;;;;;;;;5052534;28;20401;-62
2023/05/25 02:32:15;;;;;;;;;;;;;;;;;;5051788;28;20019;-62
2023/05/25 02:34:41;;;;;;;;;;;;;;;;;;5051700;28;19924;-62
2023/05/25 02:37:07;;;;;;;;;;;;;;;;;;5051343;28;19921;-62
2023/05/25 02:39:33;;;;;;;;;;;;;;;;;;5050586;28;20290;-62
2023/05/25 02:42:00;;;;;;;;;;;;;;;;;;5066367;28;19920;-63
2023/05/25 02:44:26;;;;;;;;;;;;;;;;;;5052211;28;19928;-63
2023/05/25 02:46:51;;;;;;;;;;;;;;;;;;5051831;28;19925;-62
2023/05/25 02:49:17;;;;;;;;;;;;;;;;;;5051435;28;20461;-62
2023/05/25 02:51:43;;;;;;;;;;;;;;;;;;5051269;28;19925;-62
2023/05/25 02:54:09;;;;;;;;;;;;;;;;;;5051431;28;19920;-62
2023/05/25 02:56:35;;;;;;;;;;;;;;;;;;5051337;28;19929;-62
2023/05/25 02:59:01;;;;;;;;;;;;;;;;;;5050972;28;19928;-62
2023/05/25 03:01:29;;;;;;;;;;;;;;;;;;5051240;28;19928;-62
2023/05/25 03:03:55;;;;;;;;;;;;;;;;;;5051346;28;19924;-62
2023/05/25 03:06:21;;;;;;;;;;;;;;;;;;5051182;28;20350;-62
2023/05/25 03:08:47;;;;;;;;;;;;;;;;;;5051133;28;19921;-62
2023/05/25 03:11:13;;;;;;;;;;;;;;;;;;5051258;28;20561;-62
2023/05/25 03:13:39;;;;;;;;;;;;;;;;;;5051177;28;19921;-62
2023/05/25 03:16:05;;;;;;;;;;;;;;;;;;5051455;28;19927;-62
2023/05/25 03:18:31;;;;;;;;;;;;;;;;;;5051610;28;19932;-62
2023/05/25 03:20:57;;;;;;;;;;;;;;;;;;5051330;28;19960;-62
2023/05/25 03:23:23;;;;;;;;;;;;;;;;;;5066860;28;20273;-62
2023/05/25 03:25:49;;;;;;;;;;;;;;;;;;5051592;28;20457;-62
2023/05/25 03:28:15;;;;;;;;;;;;;;;;;;5050074;28;19925;-62
2023/05/25 03:30:41;;;;;;;;;;;;;;;;;;5051424;28;19925;-62
2023/05/25 03:33:06;;;;;;;;;;;;;;;;;;5051185;28;20496;-63
2023/05/25 03:35:32;;;;;;;;;;;;;;;;;;5051293;28;19970;-63
2023/05/25 03:37:58;;;;;;;;;;;;;;;;;;5051503;28;19921;-62
2023/05/25 03:40:24;;;;;;;;;;;;;;;;;;5051422;28;20374;-62
2023/05/25 03:42:50;;;;;;;;;;;;;;;;;;5066694;28;19921;-62
2023/05/25 03:45:16;;;;;;;;;;;;;;;;;;5051232;28;19927;-62
2023/05/25 03:47:44;;;;;;;;;;;;;;;;;;5051346;28;20370;-62
2023/05/25 03:50:10;;;;;;;;;;;;;;;;;;5051125;28;19921;-62
2023/05/25 03:52:36;;;;;;;;;;;;;;;;;;5053964;28;20319;-63
2023/05/25 03:55:03;;;;;;;;;;;;;;;;;;5070151;28;20416;-62
2023/05/25 03:57:29;;;;;;;;;;;;;;;;;;5055305;28;19929;-62
2023/05/25 03:59:55;;;;;;;;;;;;;;;;;;5055130;28;19931;-62
2023/05/25 04:02:21;;;;;;;;;;;;;;;;;;5055054;28;19928;-62
2023/05/25 04:04:50;;;;;;;;;;;;;;;;;;5055290;28;19950;-62
2023/05/25 04:07:16;;;;;;;;;;;;;;;;;;5055412;28;19924;-62
2023/05/25 04:09:42;;;;;;;;;;;;;;;;;;5055211;28;20362;-62
2023/05/25 04:12:08;;;;;;;;;;;;;;;;;;5055025;28;19921;-62
2023/05/25 04:14:34;;;;;;;;;;;;;;;;;;5070235;28;19968;-62
2023/05/25 04:17:00;;;;;;;;;;;;;;;;;;5054991;28;20011;-62
2023/05/25 04:19:26;;;;;;;;;;;;;;;;;;5054961;28;20078;-62
2023/05/25 04:21:51;;;;;;;;;;;;;;;;;;5070060;28;20438;-62
2023/05/25 04:24:17;;;;;;;;;;;;;;;;;;5069577;28;20023;-62
2023/05/25 04:26:45;;;;;;;;;;;;;;;;;;5052799;28;19924;-62
2023/05/25 04:29:10;;;;;;;;;;;;;;;;;;5053443;28;19928;-62
2023/05/25 04:31:38;;;;;;;;;;;;;;;;;;5053741;28;19924;-62
2023/05/25 04:34:03;;;;;;;;;;;;;;;;;;5054100;28;19920;-62
2023/05/25 04:36:31;;;;;;;;;;;;;;;;;;5053959;28;19994;-62
2023/05/25 04:39:01;;;;;;;;;;;;;;;;;;5053460;28;19925;-63
2023/05/25 04:41:28;;;;;;;;;;;;;;;;;;5052553;28;19925;-63
2023/05/25 04:43:54;;;;;;;;;;;;;;;;;;5069074;28;19925;-63
2023/05/25 04:46:20;;;;;;;;;;;;;;;;;;5053573;28;19969;-62
2023/05/25 04:48:46;;;;;;;;;;;;;;;;;;5053370;28;20282;-62
2023/05/25 04:51:12;;;;;;;;;;;;;;;;;;5052916;28;20406;-62
2023/05/25 04:53:38;;;;;;;;;;;;;;;;;;5054518;28;19970;-62
2023/05/25 04:56:04;;;;;;;;;;;;;;;;;;5069305;28;20414;-62
2023/05/25 04:58:31;;;;;;;;;;;;;;;;;;5054121;28;19925;-62
2023/05/25 05:00:57;;;;;;;;;;;;;;;;;;5053659;28;19921;-61
2023/05/25 05:03:23;;;;;;;;;;;;;;;;;;5053151;28;20438;-62
2023/05/25 05:05:49;;;;;;;;;;;;;;;;;;5054017;28;20282;-61
2023/05/25 05:08:15;;;;;;;;;;;;;;;;;;5069343;28;20031;-61
2023/05/25 05:10:41;;;;;;;;;;;;;;;;;;5054177;28;19968;-61
2023/05/25 05:13:07;;;;;;;;;;;;;;;;;;5053850;28;20401;-61
2023/05/25 05:15:33;;;;;;;;;;;;;;;;;;5053898;28;19920;-61
2023/05/25 05:17:59;;;;;;;;;;;;;;;;;;5069231;28;19925;-61
2023/05/25 05:20:25;;;;;;;;;;;;;;;;;;5076595;22;20353;-60
2023/05/25 05:22:52;;;;;;;;;;;;;;;;;;5093157;28;19920;-60
2023/05/25 05:25:18;;;;;;;;;;;;;;;;;;5093404;28;19924;-60
2023/05/25 05:27:44;;;;;;;;;;;;;;;;;;5093896;28;20061;-60
2023/05/25 05:30:10;;;;;;;;;;;;;;;;;;5093600;28;19924;-60
2023/05/25 05:32:36;;;;;;;;;;;;;;;;;;5093946;28;19924;-60
2023/05/25 05:35:01;;;;;;;;;;;;;;;;;;5094078;28;20646;-60
2023/05/25 05:37:27;;;;;;;;;;;;;;;;;;5093556;28;19963;-60
2023/05/25 05:39:53;;;;;;;;;;;;;;;;;;5093880;28;20260;-60
2023/05/25 05:42:19;;;;;;;;;;;;;;;;;;5093460;28;20258;-58
2023/05/25 05:44:45;;;;;;;;;;;;;;;;;;5075129;28;19963;-59
2023/05/25 05:47:11;;;;;;;;;;;;;;;;;;5075121;28;19920;-59
2023/05/25 05:49:38;;;;;;;;;;;;;;;;;;5093503;28;19946;-59
2023/05/25 05:52:04;;;;;;;;;;;;;;;;;;5093489;28;19920;-59
2023/05/25 05:54:30;;;;;;;;;;;;;;;;;;5092908;28;19927;-60
2023/05/25 05:56:56;;;;;;;;;;;;;;;;;;5093265;28;19947;-60
2023/05/25 05:59:22;;;;;;;;;;;;;;;;;;5093130;28;20377;-60
2023/05/25 06:01:48;;;;;;;;;;;;;;;;;;5093109;28;20276;-60
2023/05/25 06:04:14;;;;;;;;;;;;;;;;;;5092931;28;20011;-60
2023/05/25 06:06:41;;;;;;;;;;;;;;;;;;5092964;28;20484;-60
2023/05/25 06:09:07;;;;;;;;;;;;;;;;;;5093010;28;19924;-61
2023/05/25 06:11:36;;;;;;;;;;;;;;;;;;5092754;28;19924;-60
2023/05/25 06:14:02;;;;;;;;;;;;;;;;;;5092775;28;19935;-60
2023/05/25 06:16:28;;;;;;;;;;;;;;;;;;5092774;28;19919;-59
2023/05/25 06:18:53;;;;;;;;;;;;;;;;;;5092725;28;20396;-60
2023/05/25 06:21:20;;;;;;;;;;;;;;;;;;5074407;28;19928;-60
2023/05/25 06:23:47;;;;;;;;;;;;;;;;;;5092632;28;20381;-60
2023/05/25 06:26:13;;;;;;;;;;;;;;;;;;5092922;28;20394;-60
2023/05/25 06:28:39;;;;;;;;;;;;;;;;;;5092312;28;19923;-60
2023/05/25 06:31:05;;;;;;;;;;;;;;;;;;5092830;28;19920;-59
2023/05/25 06:33:31;;;;;;;;;;;;;;;;;;5092601;28;19924;-59
2023/05/25 06:35:59;;;;;;;;;;;;;;;;;;5092722;28;19923;-59
2023/05/25 06:38:25;;;;;;;;;;;;;;;;;;5092511;28;19967;-59
2023/05/25 06:40:51;;;;;;;;;;;;;;;;;;5092531;28;19955;-60
2023/05/25 06:43:16;;;;;;;;;;;;;;;;;;5092510;28;19923;-60
2023/05/25 06:45:42;;;;;;;;;;;;;;;;;;5074146;28;19957;-59
2023/05/25 06:48:08;;;;;;;;;;;;;;;;;;5092297;28;20282;-60
2023/05/25 06:50:34;;;;;;;;;;;;;;;;;;5092361;28;20487;-59
2023/05/25 06:53:00;;;;;;;;;;;;;;;;;;5074060;28;20025;-59
2023/05/25 06:55:26;;;;;;;;;;;;;;;;;;5092229;28;20011;-59
2023/05/25 06:57:52;;;;;;;;;;;;;;;;;;5092370;28;20501;-60
2023/05/25 07:00:18;;;;;;;;;;;;;;;;;;5092405;28;19965;-60
2023/05/25 07:02:44;;;;;;;;;;;;;;;;;;5092224;28;19934;-60
2023/05/25 07:05:10;;;;;;;;;;;;;;;;;;5074092;28;19998;-58
2023/05/25 07:07:36;;;;;;;;;;;;;;;;;;5074029;28;20272;-59
2023/05/25 07:10:02;;;;;;;;;;;;;;;;;;5091784;28;20012;-60
2023/05/25 07:12:28;;;;;;;;;;;;;;;;;;5091999;28;19927;-60
2023/05/25 07:14:54;;;;;;;;;;;;;;;;;;5073475;28;20403;-60
2023/05/25 07:17:20;;;;;;;;;;;;;;;;;;5091713;28;19928;-60
2023/05/25 07:19:47;;;;;;;;;;;;;;;;;;5056703;28;20300;-60
2023/05/25 07:22:15;;;;;;;;;;;;;;;;;;5091710;28;20015;-60
2023/05/25 07:24:41;;;;;;;;;;;;;;;;;;5091481;28;20439;-60
2023/05/25 07:27:08;;;;;;;;;;;;;;;;;;5096381;28;19920;-60
2023/05/25 07:29:33;;;;;;;;;;;;;;;;;;5098823;28;19920;-60
2023/05/25 07:31:59;;;;;;;;;;;;;;;;;;5098834;28;19953;-60
2023/05/25 07:34:25;;;;;;;;;;;;;;;;;;5098680;28;20285;-60
2023/05/25 07:36:51;;;;;;;;;;;;;;;;;;5098200;28;19927;-60
2023/05/25 07:39:17;;;;;;;;;;;;;;;;;;5098239;28;19920;-60
2023/05/25 07:41:43;;;;;;;;;;;;;;;;;;5098665;28;19963;-60
2023/05/25 07:44:09;;;;;;;;;;;;;;;;;;5063493;28;19920;-60
2023/05/25 07:46:35;;;;;;;;;;;;;;;;;;5098318;28;19927;-60
2023/05/25 07:49:02;;;;;;;;;;;;;;;;;;5097988;28;19920;-60
2023/05/25 07:51:28;;;;;;;;;;;;;;;;;;5098073;28;20001;-60
2023/05/25 07:53:55;;;;;;;;;;;;;;;;;;5079852;28;19982;-60
2023/05/25 07:56:21;;;;;;;;;;;;;;;;;;5080149;28;19927;-60
2023/05/25 07:58:47;;;;;;;;;;;;;;;;;;5097880;28;20490;-60
2023/05/25 08:01:13;;;;;;;;;;;;;;;;;;5098050;28;19928;-60
2023/05/25 08:03:39;;;;;;;;;;;;;;;;;;5097856;28;19931;-60
2023/05/25 08:06:05;;;;;;;;;;;;;;;;;;5079693;28;19920;-59
2023/05/25 08:08:31;;;;;;;;;;;;;;;;;;5097731;28;19920;-60
2023/05/25 08:10:57;;;;;;;;;;;;;;;;;;5097942;28;19973;-60
2023/05/25 08:13:23;;;;;;;;;;;;;;;;;;5097877;28;19965;-59
2023/05/25 08:15:49;;;;;;;;;;;;;;;;;;5097705;28;19931;-64
2023/05/25 08:18:15;;;;;;;;;;;;;;;;;;5098046;28;19927;-60
2023/05/25 08:20:41;;;;;;;;;;;;;;;;;;5079488;28;20350;-60
2023/05/25 08:23:07;;;;;;;;;;;;;;;;;;5097664;28;19931;-60
2023/05/25 08:25:33;;;;;;;;;;;;;;;;;;5097786;28;19920;-60
2023/05/25 08:27:59;;;;;;;;;;;;;;;;;;5097604;28;19924;-60
2023/05/25 08:30:25;;;;;;;;;;;;;;;;;;5097989;28;20350;-62
2023/05/25 08:32:51;;;;;;;;;;;;;;;;;;5097981;28;19920;-61
2023/05/25 08:35:17;;;;;;;;;;;;;;;;;;5098025;28;19920;-61
2023/05/25 08:37:43;;;;;;;;;;;;;;;;;;5097254;28;19924;-62
2023/05/25 08:40:09;;;;;;;;;;;;;;;;;;5094981;28;20380;-62
2023/05/25 08:42:35;;;;;;;;;;;;;;;;;;5095040;28;19965;-62
2023/05/25 08:45:01;;;;;;;;;;;;;;;;;;5094592;28;20019;-63
2023/05/25 08:47:27;;;;;;;;;;;;;;;;;;5094781;28;19995;-64
2023/05/25 08:49:53;;;;;;;;;;;;;;;;;;5094483;28;20419;-64
2023/05/25 08:52:19;;;;;;;;;;;;;;;;;;5094834;28;19920;-64
2023/05/25 08:54:45;;;;;;;;;;;;;;;;;;5094681;28;19954;-63
2023/05/25 08:57:11;;;;;;;;;;;;;;;;;;5094649;28;19931;-63
2023/05/25 08:59:36;;;;;;;;;;;;;;;;;;5094537;28;19930;-63
2023/05/25 09:02:02;;;;;;;;;;;;;;;;;;5094770;28;20373;-63
2023/05/25 09:04:28;;;;;;;;;;;;;;;;;;5076195;28;19970;-63
2023/05/25 09:06:54;;;;;;;;;;;;;;;;;;5094291;28;19942;-63
2023/05/25 09:09:20;;;;;;;;;;;;;;;;;;5094392;28;20281;-63
2023/05/25 09:11:46;;;;;;;;;;;;;;;;;;5094259;28;19920;-62
2023/05/25 09:14:12;;;;;;;;;;;;;;;;;;5093938;28;19935;-63
2023/05/25 09:16:38;;;;;;;;;;;;;;;;;;5093865;28;20410;-63
2023/05/25 09:19:04;;;;;;;;;;;;;;;;;;5075639;28;19973;-63
2023/05/25 09:21:30;;;;;;;;;;;;;;;;;;5075049;28;19983;-63
2023/05/25 09:23:56;;;;;;;;;;;;;;;;;;5093542;28;20327;-63
2023/05/25 09:26:22;;;;;;;;;;;;;;;;;;5093492;28;19973;-63
2023/05/25 09:28:48;;;;;;;;;;;;;;;;;;5093507;28;19920;-63
2023/05/25 09:31:14;;;;;;;;;;;;;;;;;;5093550;28;20269;-63
2023/05/25 09:33:40;;;;;;;;;;;;;;;;;;5075451;28;19924;-63
2023/05/25 09:36:05;;;;;;;;;;;;;;;;;;5093565;28;19989;-63
2023/05/25 09:38:31;;;;;;;;;;;;;;;;;;5093876;28;19924;-64
2023/05/25 09:40:57;;;;;;;;;;;;;;;;;;5093625;28;20003;-63
2023/05/25 09:43:23;;;;;;;;;;;;;;;;;;5093709;28;19924;-64
2023/05/25 09:45:49;;;;;;;;;;;;;;;;;;5093513;28;19927;-64
2023/05/25 09:48:16;;;;;;;;;;;;;;;;;;5093509;28;20357;-62
2023/05/25 09:50:45;;;;;;;;;;;;;;;;;;5092888;28;20376;-63
2023/05/25 09:53:11;;;;;;;;;;;;;;;;;;5074808;28;19924;-63
2023/05/25 09:55:37;;;;;;;;;;;;;;;;;;5093343;28;19965;-63
2023/05/25 09:58:04;;;;;;;;;;;;;;;;;;5074708;28;21300;-63
2023/05/25 10:00:30;;;;;;;;;;;;;;;;;;5093023;28;20395;-63
2023/05/25 10:02:56;;;;;;;;;;;;;;;;;;5093208;28;19924;-63
2023/05/25 10:05:22;;;;;;;;;;;;;;;;;;5074802;28;20251;-63
2023/05/25 10:07:48;;;;;;;;;;;;;;;;;;5093327;28;19927;-63
2023/05/25 10:10:14;;;;;;;;;;;;;;;;;;5092884;28;19967;-62
2023/05/25 10:12:40;;;;;;;;;;;;;;;;;;5093291;28;20360;-64
2023/05/25 10:15:06;;;;;;;;;;;;;;;;;;5093088;28;19920;-64
2023/05/25 10:17:32;;;;;;;;;;;;;;;;;;5092894;28;20415;-63
2023/05/25 10:19:58;;;;;;;;;;;;;;;;;;5092745;28;19964;-63
2023/05/25 10:22:24;;;;;;;;;;;;;;;;;;5092559;28;19932;-63
2023/05/25 10:24:50;;;;;;;;;;;;;;;;;;5074399;28;20495;-64
2023/05/25 10:27:16;;;;;;;;;;;;;;;;;;5057690;28;19927;-62
2023/05/25 10:29:41;;;;;;;;;;;;;;;;;;5092431;28;19927;-63
2023/05/25 10:32:07;;;;;;;;;;;;;;;;;;5092259;28;20373;-63
2023/05/25 10:34:33;;;;;;;;;;;;;;;;;;5092708;28;19927;-63
2023/05/25 10:36:59;;;;;;;;;;;;;;;;;;5092557;28;19924;-63
2023/05/25 10:39:25;;;;;;;;;;;;;;;;;;5092324;28;20362;-63
2023/05/25 10:41:52;;;;;;;;;;;;;;;;;;5092046;28;19932;-63
2023/05/25 10:44:18;;;;;;;;;;;;;;;;;;5092061;28;19920;-63
2023/05/25 10:46:43;;;;;;;;;;;;;;;;;;5091900;28;19920;-63
2023/05/25 10:49:09;;;;;;;;;;;;;;;;;;5092121;28;19924;-63
2023/05/25 10:51:36;;;;;;;;;;;;;;;;;;5092082;28;19924;-63
2023/05/25 10:54:02;;;;;;;;;;;;;;;;;;5091818;28;20444;-63
2023/05/25 10:56:28;;;;;;;;;;;;;;;;;;5091498;28;20023;-63
2023/05/25 10:58:53;;;;;;;;;;;;;;;;;;5091356;28;19934;-63
2023/05/25 11:01:19;;;;;;;;;;;;;;;;;;5090768;28;19921;-63
2023/05/25 11:03:45;;;;;;;;;;;;;;;;;;5092038;28;19950;-63
2023/05/25 11:06:12;;;;;;;;;;;;;;;;;;5091851;28;19949;-63
2023/05/25 11:08:38;;;;;;;;;;;;;;;;;;5091957;28;19924;-63
2023/05/25 11:11:04;;;;;;;;;;;;;;;;;;5091911;28;19927;-63
2023/05/25 11:13:30;;;;;;;;;;;;;;;;;;5091434;28;19927;-60
2023/05/25 11:15:55;;;;;;;;;;;;;;;;;;5091339;28;19979;-60
2023/05/25 11:18:21;;;;;;;;;;;;;;;;;;5091476;28;19988;-60
2023/05/25 11:20:47;;;;;;;;;;;;;;;;;;5091154;28;19925;-59
2023/05/25 11:23:13;;;;;;;;;;;;;;;;;;5091566;28;19924;-59
2023/05/25 11:25:39;;;;;;;;;;;;;;;;;;5091312;28;19931;-59
2023/05/25 11:28:05;;;;;;;;;;;;;;;;;;5091527;28;19986;-59
2023/05/25 11:30:31;;;;;;;;;;;;;;;;;;5091310;28;20404;-59
2023/05/25 11:32:58;;;;;;;;;;;;;;;;;;5091420;28;20460;-59
2023/05/25 11:35:25;;;;;;;;;;;;;;;;;;5091914;28;19920;-59
2023/05/25 11:37:52;;;;;;;;;;;;;;;;;;5092156;28;19931;-59
2023/05/25 11:40:18;;;;;;;;;;;;;;;;;;5091843;28;19972;-59
2023/05/25 11:42:45;;;;;;;;;;;;;;;;;;5073711;28;19971;-59
2023/05/25 11:45:11;;;;;;;;;;;;;;;;;;5091780;28;20352;-59
2023/05/25 11:47:37;;;;;;;;;;;;;;;;;;5091863;28;19955;-59
2023/05/25 11:50:03;;;;;;;;;;;;;;;;;;5092015;28;20504;-60
2023/05/25 11:52:29;;;;;;;;;;;;;;;;;;5091834;28;20293;-59
2023/05/25 11:54:54;;;;;;;;;;;;;;;;;;5091890;28;20428;-60
2023/05/25 11:57:23;;;;;;;;;;;;;;;;;;5091708;28;19924;-59
2023/05/25 11:59:49;;;;;;;;;;;;;;;;;;5091905;28;20337;-59
2023/05/25 12:02:15;;;;;;;;;;;;;;;;;;5073465;28;19921;-59
2023/05/25 12:04:42;;;;;;;;;;;;;;;;;;5091923;28;20626;-60
2023/05/25 12:07:08;;;;;;;;;;;;;;;;;;5073385;28;19924;-59
2023/05/25 12:09:35;;;;;;;;;;;;;;;;;;5091583;28;20272;-59
2023/05/25 12:12:01;;;;;;;;;;;;;;;;;;5091842;28;19932;-59
2023/05/25 12:14:27;;;;;;;;;;;;;;;;;;5095447;28;19924;-59
2023/05/25 12:16:53;;;;;;;;;;;;;;;;;;5095580;28;20019;-59
2023/05/25 12:19:19;;;;;;;;;;;;;;;;;;5095127;28;20327;-59
2023/05/25 12:21:46;;;;;;;;;;;;;;;;;;5095172;28;19928;-59
2023/05/25 12:24:12;;;;;;;;;;;;;;;;;;5095250;28;19987;-59
2023/05/25 12:26:38;;;;;;;;;;;;;;;;;;5095295;28;19963;-59
2023/05/25 12:29:04;;;;;;;;;;;;;;;;;;5076927;28;19927;-59
2023/05/25 12:31:30;;;;;;;;;;;;;;;;;;5095151;28;19920;-59
2023/05/25 12:33:56;;;;;;;;;;;;;;;;;;5094949;28;19929;-60
2023/05/25 12:36:22;;;;;;;;;;;;;;;;;;5095102;28;19931;-59
2023/05/25 12:38:48;;;;;;;;;;;;;;;;;;5076574;28;19931;-60
2023/05/25 12:41:14;;;;;;;;;;;;;;;;;;5076916;28;19920;-59
2023/05/25 12:43:41;;;;;;;;;;;;;;;;;;5094906;28;20365;-59
2023/05/25 12:46:07;;;;;;;;;;;;;;;;;;5094956;28;19920;-59
2023/05/25 12:48:33;;;;;;;;;;;;;;;;;;5094720;28;19930;-60
2023/05/25 12:50:59;;;;;;;;;;;;;;;;;;5094859;28;19924;-59
2023/05/25 12:53:26;;;;;;;;;;;;;;;;;;5094529;28;19920;-60
2023/05/25 12:55:51;;;;;;;;;;;;;;;;;;5094992;28;19921;-60
2023/05/25 12:58:17;;;;;;;;;;;;;;;;;;5076089;28;19977;-60
2023/05/25 13:00:43;;;;;;;;;;;;;;;;;;5076183;28;19920;-60
2023/05/25 13:03:09;;;;;;;;;;;;;;;;;;5093806;28;19927;-60
2023/05/25 13:05:35;;;;;;;;;;;;;;;;;;5075718;28;20019;-60
2023/05/25 13:08:01;;;;;;;;;;;;;;;;;;5093763;28;19924;-60
2023/05/25 13:10:27;;;;;;;;;;;;;;;;;;5093776;28;20277;-60
2023/05/25 13:12:55;;;;;;;;;;;;;;;;;;5094063;28;19920;-60
2023/05/25 13:15:22;;;;;;;;;;;;;;;;;;5093514;28;19980;-60
2023/05/25 13:17:49;;;;;;;;;;;;;;;;;;5093365;28;20381;-60
2023/05/25 13:20:15;;;;;;;;;;;;;;;;;;5093718;28;19924;-60
2023/05/25 13:22:42;;;;;;;;;;;;;;;;;;5075890;28;19931;-60
2023/05/25 13:25:08;;;;;;;;;;;;;;;;;;5093035;28;19920;-60
2023/05/25 13:27:36;;;;;;;;;;;;;;;;;;5093980;28;20709;-60
2023/05/25 13:30:02;;;;;;;;;;;;;;;;;;5094132;28;19928;-60
2023/05/25 13:32:30;;;;;;;;;;;;;;;;;;5093945;28;19931;-60
2023/05/25 13:34:58;;;;;;;;;;;;;;;;;;5093767;28;19930;-63
2023/05/25 13:37:24;;;;;;;;;;;;;;;;;;5093719;28;20020;-63
2023/05/25 13:39:50;;;;;;;;;;;;;;;;;;5093834;28;20043;-63
2023/05/25 13:42:16;;;;;;;;;;;;;;;;;;5093931;28;19920;-63
2023/05/25 13:44:42;;;;;;;;;;;;;;;;;;5093894;28;19924;-63
2023/05/25 13:47:08;;;;;;;;;;;;;;;;;;5093700;28;20015;-63
2023/05/25 13:49:34;;;;;;;;;;;;;;;;;;5075221;28;19920;-63
2023/05/25 13:52:00;;;;;;;;;;;;;;;;;;5093500;28;19927;-63
2023/05/25 13:54:26;;;;;;;;;;;;;;;;;;5093595;28;20007;-64
2023/05/25 13:56:51;;;;;;;;;;;;;;;;;;5075559;28;19924;-63
2023/05/25 13:59:17;;;;;;;;;;;;;;;;;;5093313;28;19931;-63
2023/05/25 14:01:43;;;;;;;;;;;;;;;;;;5093695;28;19927;-61
2023/05/25 14:04:11;;;;;;;;;;;;;;;;;;5093268;28;19924;-61
2023/05/25 14:06:37;;;;;;;;;;;;;;;;;;5093385;28;19959;-61
2023/05/25 14:09:03;;;;;;;;;;;;;;;;;;5075183;28;20411;-61
2023/05/25 14:11:29;;;;;;;;;;;;;;;;;;5074950;28;19920;-61
2023/05/25 14:13:55;;;;;;;;;;;;;;;;;;5093514;28;19920;-61
2023/05/25 14:16:21;;;;;;;;;;;;;;;;;;5093191;28;19920;-60
2023/05/25 14:18:47;;;;;;;;;;;;;;;;;;5093017;28;19939;-60
2023/05/25 14:21:13;;;;;;;;;;;;;;;;;;5092708;28;19927;-59
2023/05/25 14:23:39;;;;;;;;;;;;;;;;;;5092811;28;19924;-59
2023/05/25 14:26:05;;;;;;;;;;;;;;;;;;5092330;28;19924;-59
2023/05/25 14:28:30;;;;;;;;;;;;;;;;;;5092995;28;19924;-59
2023/05/25 14:30:56;;;;;;;;;;;;;;;;;;5092646;28;19920;-59
2023/05/25 14:33:22;;;;;;;;;;;;;;;;;;5092679;28;19931;-59
2023/05/25 14:35:48;;;;;;;;;;;;;;;;;;5092674;28;20430;-60
2023/05/25 14:38:14;;;;;;;;;;;;;;;;;;5092661;28;20238;-60
2023/05/25 14:40:40;;;;;;;;;;;;;;;;;;5092679;28;19974;-60
2023/05/25 14:43:06;;;;;;;;;;;;;;;;;;5092802;28;19951;-60
2023/05/25 14:45:32;;;;;;;;;;;;;;;;;;5092276;28;20375;-60
2023/05/25 14:47:58;;;;;;;;;;;;;;;;;;5092809;28;19930;-61
2023/05/25 14:50:24;;;;;;;;;;;;;;;;;;5074190;28;19947;-62
2023/05/25 14:52:50;;;;;;;;;;;;;;;;;;5092432;28;19920;-62
2023/05/25 14:55:15;;;;;;;;;;;;;;;;;;5074428;28;19920;-61
2023/05/25 14:57:41;;;;;;;;;;;;;;;;;;5092338;28;19931;-61
2023/05/25 15:00:07;;;;;;;;;;;;;;;;;;5092241;28;19931;-61
2023/05/25 15:02:33;;;;;;;;;;;;;;;;;;5092406;28;19927;-62
2023/05/25 15:04:59;;;;;;;;;;;;;;;;;;5092346;28;19923;-62
2023/05/25 15:07:25;;;;;;;;;;;;;;;;;;5091898;28;20273;-62
2023/05/25 15:09:51;;;;;;;;;;;;;;;;;;5092467;28;19920;-61
2023/05/25 15:12:17;;;;;;;;;;;;;;;;;;5091913;28;19920;-62
2023/05/25 15:14:43;;;;;;;;;;;;;;;;;;5092174;28;19928;-62
2023/05/25 15:17:09;;;;;;;;;;;;;;;;;;5092276;28;19924;-61
2023/05/25 15:19:35;;;;;;;;;;;;;;;;;;5092034;28;19978;-61
2023/05/25 15:22:01;;;;;;;;;;;;;;;;;;5091928;28;20331;-61
2023/05/25 15:24:27;;;;;;;;;;;;;;;;;;5092189;28;19947;-61
2023/05/25 15:26:53;;;;;;;;;;;;;;;;;;5073974;28;20373;-61
2023/05/25 15:29:19;;;;;;;;;;;;;;;;;;5092039;28;19920;-61
2023/05/25 15:31:45;;;;;;;;;;;;;;;;;;5091938;28;19927;-61
2023/05/25 15:34:11;;;;;;;;;;;;;;;;;;5092065;28;19973;-61
2023/05/25 15:36:36;;;;;;;;;;;;;;;;;;5092027;28;19969;-61
2023/05/25 15:39:04;;;;;;;;;;;;;;;;;;5073591;28;19935;-61
2023/05/25 15:41:29;;;;;;;;;;;;;;;;;;5091890;28;19920;-64
2023/05/25 15:43:59;;;;;;;;;;;;;;;;;;5091811;28;19927;-61
2023/05/25 15:46:25;;;;;;;;;;;;;;;;;;5091371;28;20399;-61
2023/05/25 15:48:51;;;;;;;;;;;;;;;;;;5095301;28;19920;-58
2023/05/25 15:51:17;;;;;;;;;;;;;;;;;;5077563;28;19928;-59
2023/05/25 15:53:43;;;;;;;;;;;;;;;;;;5095769;28;19999;-60
2023/05/25 15:56:09;;;;;;;;;;;;;;;;;;5095751;28;19924;-59
2023/05/25 15:58:35;;;;;;;;;;;;;;;;;;5095478;28;20400;-60
2023/05/25 16:01:01;;;;;;;;;;;;;;;;;;5077283;28;19963;-59
2023/05/25 16:03:28;;;;;;;;;;;;;;;;;;5095672;28;19973;-59
2023/05/25 16:05:54;;;;;;;;;;;;;;;;;;5095551;28;19920;-60
2023/05/25 16:08:20;;;;;;;;;;;;;;;;;;5095327;28;19926;-59
2023/05/25 16:10:46;;;;;;;;;;;;;;;;;;5095302;28;20373;-60
2023/05/25 16:13:12;;;;;;;;;;;;;;;;;;5095332;28;19933;-60
2023/05/25 16:15:38;;;;;;;;;;;;;;;;;;5095498;28;19920;-60
2023/05/25 16:18:04;;;;;;;;;;;;;;;;;;5094916;28;19966;-59
2023/05/25 16:20:30;;;;;;;;;;;;;;;;;;5076617;28;20018;-60
2023/05/25 16:22:55;;;;;;;;;;;;;;;;;;5095150;28;19965;-60
2023/05/25 16:25:21;;;;;;;;;;;;;;;;;;5095275;28;19920;-60
2023/05/25 16:27:47;;;;;;;;;;;;;;;;;;5094981;28;19959;-60
2023/05/25 16:30:13;;;;;;;;;;;;;;;;;;5095364;28;20503;-60
2023/05/25 16:32:39;;;;;;;;;;;;;;;;;;5095070;28;20436;-61
2023/05/25 16:35:05;;;;;;;;;;;;;;;;;;5095185;28;19920;-62
2023/05/25 16:37:31;;;;;;;;;;;;;;;;;;5095075;28;19920;-63